sensor_id;sensor_type;location;lat;lon;timestamp;P1;durP1;ratioP1;P2;durP2;ratioP2
65244;SDS011;51846;48.692;2.382;2022-07-21T00:00:26;7.07;;;4.05;;
65244;SDS011;51846;48.692;2.382;2022-07-21T00:02:53;6.35;;;4.03;;
65244;SDS011;51846;48.692;2.382;2022-07-21T00:05:19;5.72;;;3.75;;
65244;SDS011;51846;48.692;2.382;2022-07-21T00:07:45;6.78;;;3.83;;
65244;SDS011;51846;48.692;2.382;2022-07-21T00:10:11;7.38;;;3.85;;
65244;SDS011;51846;48.692;2.382;2022-07-21T00:12:37;5.45;;;3.63;;
65244;SDS011;51846;48.692;2.382;2022-07-21T00:15:03;5.13;;;3.78;;
65244;SDS011;51846;48.692;2.382;2022-07-21T00:17:29;7.10;;;3.65;;
65244;SDS011;51846;48.692;2.382;2022-07-21T00:19:55;5.57;;;3.92;;
65244;SDS011;51846;48.692;2.382;2022-07-21T00:22:20;5.47;;;3.97;;
65244;SDS011;51846;48.692;2.382;2022-07-21T00:24:46;6.97;;;3.97;;
65244;SDS011;51846;48.692;2.382;2022-07-21T00:27:11;7.97;;;3.90;;
65244;SDS011;51846;48.692;2.382;2022-07-21T00:29:36;5.90;;;3.70;;
65244;SDS011;51846;48.692;2.382;2022-07-21T00:32:02;9.10;;;4.15;;
65244;SDS011;51846;48.692;2.382;2022-07-21T00:34:29;6.55;;;3.85;;
65244;SDS011;51846;48.692;2.382;2022-07-21T00:36:54;7.68;;;4.10;;
65244;SDS011;51846;48.692;2.382;2022-07-21T00:39:19;7.55;;;4.18;;
65244;SDS011;51846;48.692;2.382;2022-07-21T00:41:45;6.63;;;4.13;;
65244;SDS011;51846;48.692;2.382;2022-07-21T00:44:23;6.30;;;4.43;;
65244;SDS011;51846;48.692;2.382;2022-07-21T00:46:51;7.35;;;4.53;;
65244;SDS011;51846;48.692;2.382;2022-07-21T00:49:17;7.57;;;4.20;;
65244;SDS011;51846;48.692;2.382;2022-07-21T00:51:43;7.60;;;4.20;;
65244;SDS011;51846;48.692;2.382;2022-07-21T00:54:08;6.25;;;4.13;;
65244;SDS011;51846;48.692;2.382;2022-07-21T00:56:34;6.75;;;4.10;;
65244;SDS011;51846;48.692;2.382;2022-07-21T00:59:00;5.97;;;3.75;;
65244;SDS011;51846;48.692;2.382;2022-07-21T01:01:26;8.13;;;4.28;;
65244;SDS011;51846;48.692;2.382;2022-07-21T01:03:51;6.95;;;4.47;;
65244;SDS011;51846;48.692;2.382;2022-07-21T01:06:17;8.30;;;4.20;;
65244;SDS011;51846;48.692;2.382;2022-07-21T01:08:42;8.23;;;4.50;;
65244;SDS011;51846;48.692;2.382;2022-07-21T01:11:07;6.53;;;4.95;;
65244;SDS011;51846;48.692;2.382;2022-07-21T01:13:33;11.48;;;4.88;;
65244;SDS011;51846;48.692;2.382;2022-07-21T01:15:58;11.60;;;4.95;;
65244;SDS011;51846;48.692;2.382;2022-07-21T01:18:24;7.00;;;4.47;;
65244;SDS011;51846;48.692;2.382;2022-07-21T01:20:51;7.55;;;4.30;;
65244;SDS011;51846;48.692;2.382;2022-07-21T01:23:19;7.35;;;4.00;;
65244;SDS011;51846;48.692;2.382;2022-07-21T01:25:46;8.65;;;4.20;;
65244;SDS011;51846;48.692;2.382;2022-07-21T01:28:16;7.00;;;4.10;;
65244;SDS011;51846;48.692;2.382;2022-07-21T01:30:41;8.35;;;4.40;;
65244;SDS011;51846;48.692;2.382;2022-07-21T01:33:07;6.57;;;4.20;;
65244;SDS011;51846;48.692;2.382;2022-07-21T01:35:33;10.10;;;4.05;;
65244;SDS011;51846;48.692;2.382;2022-07-21T01:37:58;6.35;;;4.00;;
65244;SDS011;51846;48.692;2.382;2022-07-21T01:40:25;7.13;;;4.30;;
65244;SDS011;51846;48.692;2.382;2022-07-21T01:43:09;6.55;;;4.00;;
65244;SDS011;51846;48.692;2.382;2022-07-21T01:45:34;7.30;;;3.80;;
65244;SDS011;51846;48.692;2.382;2022-07-21T01:48:00;6.30;;;4.03;;
65244;SDS011;51846;48.692;2.382;2022-07-21T01:50:25;6.70;;;4.10;;
65244;SDS011;51846;48.692;2.382;2022-07-21T01:52:54;7.95;;;4.50;;
65244;SDS011;51846;48.692;2.382;2022-07-21T01:55:21;5.97;;;3.97;;
65244;SDS011;51846;48.692;2.382;2022-07-21T01:57:47;8.25;;;4.03;;
65244;SDS011;51846;48.692;2.382;2022-07-21T02:00:12;7.93;;;4.00;;
65244;SDS011;51846;48.692;2.382;2022-07-21T02:02:38;8.00;;;3.90;;
65244;SDS011;51846;48.692;2.382;2022-07-21T02:05:04;6.72;;;3.97;;
65244;SDS011;51846;48.692;2.382;2022-07-21T02:07:29;5.93;;;4.00;;
65244;SDS011;51846;48.692;2.382;2022-07-21T02:09:55;6.60;;;4.10;;
65244;SDS011;51846;48.692;2.382;2022-07-21T02:12:20;8.70;;;4.18;;
65244;SDS011;51846;48.692;2.382;2022-07-21T02:14:45;6.40;;;3.67;;
65244;SDS011;51846;48.692;2.382;2022-07-21T02:17:11;9.27;;;4.15;;
65244;SDS011;51846;48.692;2.382;2022-07-21T02:19:36;6.88;;;3.95;;
65244;SDS011;51846;48.692;2.382;2022-07-21T02:22:01;6.68;;;3.90;;
65244;SDS011;51846;48.692;2.382;2022-07-21T02:24:27;5.80;;;4.10;;
65244;SDS011;51846;48.692;2.382;2022-07-21T02:26:52;5.60;;;3.70;;
65244;SDS011;51846;48.692;2.382;2022-07-21T02:29:18;6.82;;;3.80;;
65244;SDS011;51846;48.692;2.382;2022-07-21T02:31:43;5.55;;;3.72;;
65244;SDS011;51846;48.692;2.382;2022-07-21T02:34:08;5.97;;;3.75;;
65244;SDS011;51846;48.692;2.382;2022-07-21T02:36:34;6.03;;;3.53;;
65244;SDS011;51846;48.692;2.382;2022-07-21T02:38:59;5.05;;;3.75;;
65244;SDS011;51846;48.692;2.382;2022-07-21T02:41:24;5.10;;;3.35;;
65244;SDS011;51846;48.692;2.382;2022-07-21T02:43:50;7.03;;;3.80;;
65244;SDS011;51846;48.692;2.382;2022-07-21T02:46:15;7.78;;;3.58;;
65244;SDS011;51846;48.692;2.382;2022-07-21T02:48:40;6.70;;;3.60;;
65244;SDS011;51846;48.692;2.382;2022-07-21T02:51:06;6.22;;;3.65;;
65244;SDS011;51846;48.692;2.382;2022-07-21T02:53:31;7.50;;;3.33;;
65244;SDS011;51846;48.692;2.382;2022-07-21T02:55:56;8.80;;;3.63;;
65244;SDS011;51846;48.692;2.382;2022-07-21T02:58:26;5.70;;;3.70;;
65244;SDS011;51846;48.692;2.382;2022-07-21T03:03:21;5.88;;;3.40;;
65244;SDS011;51846;48.692;2.382;2022-07-21T03:05:48;5.45;;;3.38;;
65244;SDS011;51846;48.692;2.382;2022-07-21T03:08:13;5.20;;;3.42;;
65244;SDS011;51846;48.692;2.382;2022-07-21T03:10:39;6.78;;;3.33;;
65244;SDS011;51846;48.692;2.382;2022-07-21T03:13:05;6.63;;;3.25;;
65244;SDS011;51846;48.692;2.382;2022-07-21T03:15:31;5.80;;;3.17;;
65244;SDS011;51846;48.692;2.382;2022-07-21T03:17:57;4.28;;;3.30;;
65244;SDS011;51846;48.692;2.382;2022-07-21T03:20:23;5.40;;;3.30;;
65244;SDS011;51846;48.692;2.382;2022-07-21T03:22:49;6.95;;;3.50;;
65244;SDS011;51846;48.692;2.382;2022-07-21T03:25:14;6.93;;;3.75;;
65244;SDS011;51846;48.692;2.382;2022-07-21T03:27:41;8.93;;;4.00;;
65244;SDS011;51846;48.692;2.382;2022-07-21T03:30:07;7.05;;;3.40;;
65244;SDS011;51846;48.692;2.382;2022-07-21T03:32:34;6.70;;;3.83;;
65244;SDS011;51846;48.692;2.382;2022-07-21T03:35:00;8.80;;;3.95;;
65244;SDS011;51846;48.692;2.382;2022-07-21T03:37:26;5.78;;;3.65;;
65244;SDS011;51846;48.692;2.382;2022-07-21T03:39:51;12.20;;;3.97;;
65244;SDS011;51846;48.692;2.382;2022-07-21T03:42:17;7.15;;;4.47;;
65244;SDS011;51846;48.692;2.382;2022-07-21T03:44:42;7.65;;;4.35;;
65244;SDS011;51846;48.692;2.382;2022-07-21T03:47:07;9.93;;;4.70;;
65244;SDS011;51846;48.692;2.382;2022-07-21T03:49:33;9.13;;;5.07;;
65244;SDS011;51846;48.692;2.382;2022-07-21T03:51:58;10.27;;;5.70;;
65244;SDS011;51846;48.692;2.382;2022-07-21T03:54:24;10.75;;;5.72;;
65244;SDS011;51846;48.692;2.382;2022-07-21T03:56:49;13.45;;;5.95;;
65244;SDS011;51846;48.692;2.382;2022-07-21T03:59:14;9.00;;;5.75;;
65244;SDS011;51846;48.692;2.382;2022-07-21T04:01:40;9.20;;;5.93;;
65244;SDS011;51846;48.692;2.382;2022-07-21T04:04:06;10.02;;;6.20;;
65244;SDS011;51846;48.692;2.382;2022-07-21T04:06:31;9.18;;;5.75;;
65244;SDS011;51846;48.692;2.382;2022-07-21T04:08:57;12.30;;;6.05;;
65244;SDS011;51846;48.692;2.382;2022-07-21T04:11:22;14.45;;;6.30;;
65244;SDS011;51846;48.692;2.382;2022-07-21T04:13:47;10.10;;;6.40;;
65244;SDS011;51846;48.692;2.382;2022-07-21T04:16:13;10.18;;;6.80;;
65244;SDS011;51846;48.692;2.382;2022-07-21T04:18:38;10.32;;;6.82;;
65244;SDS011;51846;48.692;2.382;2022-07-21T04:21:03;15.27;;;7.30;;
65244;SDS011;51846;48.692;2.382;2022-07-21T04:23:29;10.57;;;6.47;;
65244;SDS011;51846;48.692;2.382;2022-07-21T04:25:54;11.93;;;7.32;;
65244;SDS011;51846;48.692;2.382;2022-07-21T04:28:20;13.30;;;7.75;;
65244;SDS011;51846;48.692;2.382;2022-07-21T04:30:45;13.13;;;8.48;;
65244;SDS011;51846;48.692;2.382;2022-07-21T04:33:11;12.13;;;8.45;;
65244;SDS011;51846;48.692;2.382;2022-07-21T04:35:36;16.92;;;8.52;;
65244;SDS011;51846;48.692;2.382;2022-07-21T04:38:01;13.20;;;7.63;;
65244;SDS011;51846;48.692;2.382;2022-07-21T04:40:27;15.63;;;8.65;;
65244;SDS011;51846;48.692;2.382;2022-07-21T04:42:52;14.43;;;8.93;;
65244;SDS011;51846;48.692;2.382;2022-07-21T04:45:17;14.05;;;8.68;;
65244;SDS011;51846;48.692;2.382;2022-07-21T04:47:50;13.25;;;9.00;;
65244;SDS011;51846;48.692;2.382;2022-07-21T04:50:18;14.83;;;8.83;;
65244;SDS011;51846;48.692;2.382;2022-07-21T04:52:44;17.00;;;8.98;;
65244;SDS011;51846;48.692;2.382;2022-07-21T04:55:10;17.13;;;8.88;;
65244;SDS011;51846;48.692;2.382;2022-07-21T04:57:37;13.90;;;8.70;;
65244;SDS011;51846;48.692;2.382;2022-07-21T05:00:04;15.10;;;8.75;;
65244;SDS011;51846;48.692;2.382;2022-07-21T05:02:31;14.90;;;9.07;;
65244;SDS011;51846;48.692;2.382;2022-07-21T05:04:56;11.57;;;8.30;;
65244;SDS011;51846;48.692;2.382;2022-07-21T05:07:21;11.18;;;7.93;;
65244;SDS011;51846;48.692;2.382;2022-07-21T05:09:47;15.02;;;8.90;;
65244;SDS011;51846;48.692;2.382;2022-07-21T05:12:12;15.68;;;8.63;;
65244;SDS011;51846;48.692;2.382;2022-07-21T05:14:37;15.95;;;8.60;;
65244;SDS011;51846;48.692;2.382;2022-07-21T05:17:03;13.90;;;8.65;;
65244;SDS011;51846;48.692;2.382;2022-07-21T05:19:28;13.55;;;9.20;;
65244;SDS011;51846;48.692;2.382;2022-07-21T05:21:53;16.73;;;9.35;;
65244;SDS011;51846;48.692;2.382;2022-07-21T05:24:19;19.17;;;9.73;;
65244;SDS011;51846;48.692;2.382;2022-07-21T05:26:44;16.77;;;9.18;;
65244;SDS011;51846;48.692;2.382;2022-07-21T05:29:09;14.52;;;8.75;;
65244;SDS011;51846;48.692;2.382;2022-07-21T05:31:35;15.68;;;8.90;;
65244;SDS011;51846;48.692;2.382;2022-07-21T05:34:00;12.70;;;8.50;;
65244;SDS011;51846;48.692;2.382;2022-07-21T05:36:26;18.88;;;10.15;;
65244;SDS011;51846;48.692;2.382;2022-07-21T05:38:51;14.65;;;9.82;;
65244;SDS011;51846;48.692;2.382;2022-07-21T05:41:16;16.05;;;10.38;;
65244;SDS011;51846;48.692;2.382;2022-07-21T05:43:42;17.23;;;10.32;;
65244;SDS011;51846;48.692;2.382;2022-07-21T05:46:07;18.50;;;10.20;;
65244;SDS011;51846;48.692;2.382;2022-07-21T05:48:32;19.13;;;10.27;;
65244;SDS011;51846;48.692;2.382;2022-07-21T05:50:58;16.77;;;10.32;;
65244;SDS011;51846;48.692;2.382;2022-07-21T05:53:23;19.35;;;9.70;;
65244;SDS011;51846;48.692;2.382;2022-07-21T05:55:49;18.48;;;10.00;;
65244;SDS011;51846;48.692;2.382;2022-07-21T05:58:14;15.25;;;10.00;;
65244;SDS011;51846;48.692;2.382;2022-07-21T06:00:40;17.73;;;10.00;;
65244;SDS011;51846;48.692;2.382;2022-07-21T06:03:06;17.98;;;9.63;;
65244;SDS011;51846;48.692;2.382;2022-07-21T06:05:31;19.70;;;9.60;;
65244;SDS011;51846;48.692;2.382;2022-07-21T06:07:56;17.67;;;9.40;;
65244;SDS011;51846;48.692;2.382;2022-07-21T06:10:22;14.75;;;9.27;;
65244;SDS011;51846;48.692;2.382;2022-07-21T06:12:47;20.90;;;10.30;;
65244;SDS011;51846;48.692;2.382;2022-07-21T06:15:13;17.52;;;9.38;;
65244;SDS011;51846;48.692;2.382;2022-07-21T06:17:42;19.77;;;9.48;;
65244;SDS011;51846;48.692;2.382;2022-07-21T06:20:09;16.05;;;9.55;;
65244;SDS011;51846;48.692;2.382;2022-07-21T06:22:36;16.92;;;9.35;;
65244;SDS011;51846;48.692;2.382;2022-07-21T06:25:01;21.52;;;10.15;;
65244;SDS011;51846;48.692;2.382;2022-07-21T06:27:27;20.45;;;9.93;;
65244;SDS011;51846;48.692;2.382;2022-07-21T06:29:53;19.67;;;9.50;;
65244;SDS011;51846;48.692;2.382;2022-07-21T06:32:21;23.35;;;10.43;;
65244;SDS011;51846;48.692;2.382;2022-07-21T06:34:47;20.77;;;9.60;;
65244;SDS011;51846;48.692;2.382;2022-07-21T06:37:12;23.48;;;9.45;;
65244;SDS011;51846;48.692;2.382;2022-07-21T06:39:38;20.50;;;9.23;;
65244;SDS011;51846;48.692;2.382;2022-07-21T06:42:06;16.95;;;9.57;;
65244;SDS011;51846;48.692;2.382;2022-07-21T06:44:32;19.98;;;9.63;;
65244;SDS011;51846;48.692;2.382;2022-07-21T06:46:58;18.80;;;9.10;;
65244;SDS011;51846;48.692;2.382;2022-07-21T06:49:29;16.10;;;9.45;;
65244;SDS011;51846;48.692;2.382;2022-07-21T06:51:58;16.30;;;9.38;;
65244;SDS011;51846;48.692;2.382;2022-07-21T06:54:23;20.02;;;9.45;;
65244;SDS011;51846;48.692;2.382;2022-07-21T06:56:48;21.08;;;8.90;;
65244;SDS011;51846;48.692;2.382;2022-07-21T06:59:14;18.73;;;8.95;;
65244;SDS011;51846;48.692;2.382;2022-07-21T07:01:39;17.65;;;8.60;;
65244;SDS011;51846;48.692;2.382;2022-07-21T07:04:05;24.35;;;8.88;;
65244;SDS011;51846;48.692;2.382;2022-07-21T07:06:30;17.73;;;9.30;;
65244;SDS011;51846;48.692;2.382;2022-07-21T07:08:55;22.17;;;8.90;;
65244;SDS011;51846;48.692;2.382;2022-07-21T07:11:21;20.15;;;9.07;;
65244;SDS011;51846;48.692;2.382;2022-07-21T07:13:46;16.58;;;8.98;;
65244;SDS011;51846;48.692;2.382;2022-07-21T07:16:12;18.20;;;9.25;;
65244;SDS011;51846;48.692;2.382;2022-07-21T07:18:38;17.27;;;9.35;;
65244;SDS011;51846;48.692;2.382;2022-07-21T07:21:03;18.60;;;8.93;;
65244;SDS011;51846;48.692;2.382;2022-07-21T07:23:29;16.77;;;8.50;;
65244;SDS011;51846;48.692;2.382;2022-07-21T07:25:54;16.92;;;8.85;;
65244;SDS011;51846;48.692;2.382;2022-07-21T07:28:20;14.35;;;8.25;;
65244;SDS011;51846;48.692;2.382;2022-07-21T07:30:45;20.17;;;8.50;;
65244;SDS011;51846;48.692;2.382;2022-07-21T07:33:10;20.17;;;9.40;;
65244;SDS011;51846;48.692;2.382;2022-07-21T07:35:36;19.42;;;9.13;;
65244;SDS011;51846;48.692;2.382;2022-07-21T07:38:01;18.55;;;9.10;;
65244;SDS011;51846;48.692;2.382;2022-07-21T07:40:27;17.70;;;9.50;;
65244;SDS011;51846;48.692;2.382;2022-07-21T07:42:52;17.95;;;9.02;;
65244;SDS011;51846;48.692;2.382;2022-07-21T07:45:17;17.48;;;8.70;;
65244;SDS011;51846;48.692;2.382;2022-07-21T07:47:43;15.85;;;9.00;;
65244;SDS011;51846;48.692;2.382;2022-07-21T07:50:11;17.05;;;8.85;;
65244;SDS011;51846;48.692;2.382;2022-07-21T07:52:38;16.67;;;8.43;;
65244;SDS011;51846;48.692;2.382;2022-07-21T07:55:05;14.45;;;8.38;;
65244;SDS011;51846;48.692;2.382;2022-07-21T07:57:35;16.92;;;8.43;;
65244;SDS011;51846;48.692;2.382;2022-07-21T08:00:02;19.50;;;8.45;;
65244;SDS011;51846;48.692;2.382;2022-07-21T08:02:29;16.38;;;8.45;;
65244;SDS011;51846;48.692;2.382;2022-07-21T08:04:55;16.35;;;8.30;;
65244;SDS011;51846;48.692;2.382;2022-07-21T08:07:20;17.58;;;7.97;;
65244;SDS011;51846;48.692;2.382;2022-07-21T08:09:45;16.13;;;7.97;;
65244;SDS011;51846;48.692;2.382;2022-07-21T08:12:11;15.70;;;7.80;;
65244;SDS011;51846;48.692;2.382;2022-07-21T08:14:36;14.55;;;7.90;;
65244;SDS011;51846;48.692;2.382;2022-07-21T08:17:02;15.70;;;7.38;;
65244;SDS011;51846;48.692;2.382;2022-07-21T08:19:27;14.63;;;8.25;;
65244;SDS011;51846;48.692;2.382;2022-07-21T08:21:52;12.90;;;7.60;;
65244;SDS011;51846;48.692;2.382;2022-07-21T08:24:18;15.25;;;7.68;;
65244;SDS011;51846;48.692;2.382;2022-07-21T08:26:43;13.30;;;6.88;;
65244;SDS011;51846;48.692;2.382;2022-07-21T08:29:09;13.35;;;7.97;;
65244;SDS011;51846;48.692;2.382;2022-07-21T08:31:35;12.13;;;7.90;;
65244;SDS011;51846;48.692;2.382;2022-07-21T08:34:00;13.52;;;8.00;;
65244;SDS011;51846;48.692;2.382;2022-07-21T08:36:25;14.75;;;7.93;;
65244;SDS011;51846;48.692;2.382;2022-07-21T08:38:51;16.10;;;7.50;;
65244;SDS011;51846;48.692;2.382;2022-07-21T08:41:16;14.95;;;8.10;;
65244;SDS011;51846;48.692;2.382;2022-07-21T08:43:42;15.32;;;7.43;;
65244;SDS011;51846;48.692;2.382;2022-07-21T08:46:07;13.93;;;7.53;;
65244;SDS011;51846;48.692;2.382;2022-07-21T08:48:33;16.98;;;7.65;;
65244;SDS011;51846;48.692;2.382;2022-07-21T08:51:00;14.23;;;7.90;;
65244;SDS011;51846;48.692;2.382;2022-07-21T08:53:26;13.43;;;7.80;;
65244;SDS011;51846;48.692;2.382;2022-07-21T08:55:53;14.50;;;8.05;;
65244;SDS011;51846;48.692;2.382;2022-07-21T08:58:19;14.00;;;7.10;;
65244;SDS011;51846;48.692;2.382;2022-07-21T09:00:46;17.20;;;7.38;;
65244;SDS011;51846;48.692;2.382;2022-07-21T09:03:17;15.43;;;8.55;;
65244;SDS011;51846;48.692;2.382;2022-07-21T09:08:41;11.57;;;7.15;;
65244;SDS011;51846;48.692;2.382;2022-07-21T09:11:16;12.30;;;7.60;;
65244;SDS011;51846;48.692;2.382;2022-07-21T09:13:43;13.07;;;7.60;;
65244;SDS011;51846;48.692;2.382;2022-07-21T09:16:09;14.38;;;7.60;;
65244;SDS011;51846;48.692;2.382;2022-07-21T09:19:14;12.00;;;7.78;;
65244;SDS011;51846;48.692;2.382;2022-07-21T09:21:28;12.02;;;7.72;;
65244;SDS011;51846;48.692;2.382;2022-07-21T09:24:10;12.65;;;7.40;;
65244;SDS011;51846;48.692;2.382;2022-07-21T09:29:36;12.88;;;8.05;;
65244;SDS011;51846;48.692;2.382;2022-07-21T09:32:13;13.95;;;8.23;;
65244;SDS011;51846;48.692;2.382;2022-07-21T09:34:47;12.88;;;7.60;;
65244;SDS011;51846;48.692;2.382;2022-07-21T09:37:14;12.48;;;7.97;;
65244;SDS011;51846;48.692;2.382;2022-07-21T09:42:12;15.57;;;7.95;;
65244;SDS011;51846;48.692;2.382;2022-07-21T09:44:38;16.67;;;7.95;;
65244;SDS011;51846;48.692;2.382;2022-07-21T09:47:12;15.05;;;7.75;;
65244;SDS011;51846;48.692;2.382;2022-07-21T09:49:40;12.77;;;8.50;;
65244;SDS011;51846;48.692;2.382;2022-07-21T09:55:05;12.48;;;7.45;;
65244;SDS011;51846;48.692;2.382;2022-07-21T09:57:33;10.93;;;7.30;;
65244;SDS011;51846;48.692;2.382;2022-07-21T09:59:59;15.77;;;7.70;;
65244;SDS011;51846;48.692;2.382;2022-07-21T10:02:26;10.75;;;7.80;;
65244;SDS011;51846;48.692;2.382;2022-07-21T10:07:29;13.70;;;8.05;;
65244;SDS011;51846;48.692;2.382;2022-07-21T10:09:56;15.57;;;8.52;;
65244;SDS011;51846;48.692;2.382;2022-07-21T10:12:23;12.07;;;8.02;;
65244;SDS011;51846;48.692;2.382;2022-07-21T10:14:49;11.85;;;8.10;;
65244;SDS011;51846;48.692;2.382;2022-07-21T10:17:16;14.38;;;8.10;;
65244;SDS011;51846;48.692;2.382;2022-07-21T10:19:52;14.60;;;7.55;;
65244;SDS011;51846;48.692;2.382;2022-07-21T10:22:21;10.48;;;7.45;;
65244;SDS011;51846;48.692;2.382;2022-07-21T10:24:53;10.95;;;7.00;;
65244;SDS011;51846;48.692;2.382;2022-07-21T10:27:18;13.02;;;7.15;;
65244;SDS011;51846;48.692;2.382;2022-07-21T10:32:12;14.27;;;6.95;;
65244;SDS011;51846;48.692;2.382;2022-07-21T10:34:42;10.10;;;7.10;;
65244;SDS011;51846;48.692;2.382;2022-07-21T10:37:08;11.13;;;6.60;;
65244;SDS011;51846;48.692;2.382;2022-07-21T10:39:34;9.60;;;6.93;;
65244;SDS011;51846;48.692;2.382;2022-07-21T10:41:59;14.30;;;7.32;;
65244;SDS011;51846;48.692;2.382;2022-07-21T10:44:38;10.82;;;7.15;;
65244;SDS011;51846;48.692;2.382;2022-07-21T10:49:53;11.35;;;6.85;;
65244;SDS011;51846;48.692;2.382;2022-07-21T10:57:35;8.70;;;6.05;;
65244;SDS011;51846;48.692;2.382;2022-07-21T11:02:59;9.23;;;5.90;;
65244;SDS011;51846;48.692;2.382;2022-07-21T11:05:27;7.68;;;6.00;;
65244;SDS011;51846;48.692;2.382;2022-07-21T11:08:14;8.63;;;5.90;;
65244;SDS011;51846;48.692;2.382;2022-07-21T11:10:46;7.97;;;5.75;;
65244;SDS011;51846;48.692;2.382;2022-07-21T11:13:13;9.00;;;5.90;;
65244;SDS011;51846;48.692;2.382;2022-07-21T11:18:23;8.70;;;5.32;;
65244;SDS011;51846;48.692;2.382;2022-07-21T11:21:01;8.32;;;5.47;;
65244;SDS011;51846;48.692;2.382;2022-07-21T11:23:39;8.98;;;5.97;;
65244;SDS011;51846;48.692;2.382;2022-07-21T11:26:12;10.57;;;6.10;;
65244;SDS011;51846;48.692;2.382;2022-07-21T11:28:40;12.65;;;5.55;;
65244;SDS011;51846;48.692;2.382;2022-07-21T11:33:49;8.20;;;5.30;;
65244;SDS011;51846;48.692;2.382;2022-07-21T11:36:24;8.32;;;5.20;;
65244;SDS011;51846;48.692;2.382;2022-07-21T11:39:05;8.75;;;5.55;;
65244;SDS011;51846;48.692;2.382;2022-07-21T11:41:35;10.55;;;5.80;;
65244;SDS011;51846;48.692;2.382;2022-07-21T11:44:02;11.43;;;7.80;;
65244;SDS011;51846;48.692;2.382;2022-07-21T11:46:29;12.95;;;6.40;;
65244;SDS011;51846;48.692;2.382;2022-07-21T11:49:10;11.20;;;5.63;;
65244;SDS011;51846;48.692;2.382;2022-07-21T11:51:36;8.05;;;5.50;;
65244;SDS011;51846;48.692;2.382;2022-07-21T11:54:01;8.65;;;5.05;;
65244;SDS011;51846;48.692;2.382;2022-07-21T11:56:27;9.80;;;5.78;;
65244;SDS011;51846;48.692;2.382;2022-07-21T11:59:07;9.38;;;5.60;;
65244;SDS011;51846;48.692;2.382;2022-07-21T12:01:46;11.07;;;5.60;;
65244;SDS011;51846;48.692;2.382;2022-07-21T12:04:29;9.48;;;5.38;;
65244;SDS011;51846;48.692;2.382;2022-07-21T12:06:55;10.07;;;5.72;;
65244;SDS011;51846;48.692;2.382;2022-07-21T12:09:21;9.15;;;5.72;;
65244;SDS011;51846;48.692;2.382;2022-07-21T12:11:47;8.55;;;5.45;;
65244;SDS011;51846;48.692;2.382;2022-07-21T12:14:12;8.38;;;5.35;;
65244;SDS011;51846;48.692;2.382;2022-07-21T12:16:50;8.60;;;5.40;;
65244;SDS011;51846;48.692;2.382;2022-07-21T12:19:17;15.68;;;5.47;;
65244;SDS011;51846;48.692;2.382;2022-07-21T12:21:51;8.88;;;5.65;;
65244;SDS011;51846;48.692;2.382;2022-07-21T12:24:18;7.97;;;5.88;;
65244;SDS011;51846;48.692;2.382;2022-07-21T12:26:44;12.25;;;5.60;;
65244;SDS011;51846;48.692;2.382;2022-07-21T12:29:10;10.80;;;5.93;;
65244;SDS011;51846;48.692;2.382;2022-07-21T12:31:49;10.43;;;5.80;;
65244;SDS011;51846;48.692;2.382;2022-07-21T12:34:15;12.07;;;5.68;;
65244;SDS011;51846;48.692;2.382;2022-07-21T12:36:43;9.48;;;5.35;;
65244;SDS011;51846;48.692;2.382;2022-07-21T12:39:16;7.45;;;5.05;;
65244;SDS011;51846;48.692;2.382;2022-07-21T12:42:09;9.82;;;5.10;;
65244;SDS011;51846;48.692;2.382;2022-07-21T12:44:36;9.40;;;5.35;;
65244;SDS011;51846;48.692;2.382;2022-07-21T12:47:12;9.98;;;5.22;;
65244;SDS011;51846;48.692;2.382;2022-07-21T12:49:55;8.45;;;5.10;;
65244;SDS011;51846;48.692;2.382;2022-07-21T12:52:22;12.35;;;5.85;;
65244;SDS011;51846;48.692;2.382;2022-07-21T12:54:49;9.88;;;5.35;;
65244;SDS011;51846;48.692;2.382;2022-07-21T12:57:14;8.90;;;5.50;;
65244;SDS011;51846;48.692;2.382;2022-07-21T12:59:40;9.73;;;5.45;;
65244;SDS011;51846;48.692;2.382;2022-07-21T13:02:05;10.57;;;5.63;;
65244;SDS011;51846;48.692;2.382;2022-07-21T13:04:30;7.68;;;5.03;;
65244;SDS011;51846;48.692;2.382;2022-07-21T13:06:56;10.82;;;5.00;;
65244;SDS011;51846;48.692;2.382;2022-07-21T13:09:22;7.43;;;5.15;;
65244;SDS011;51846;48.692;2.382;2022-07-21T13:11:47;9.23;;;4.95;;
65244;SDS011;51846;48.692;2.382;2022-07-21T13:14:12;7.75;;;5.10;;
65244;SDS011;51846;48.692;2.382;2022-07-21T13:16:38;6.97;;;5.03;;
65244;SDS011;51846;48.692;2.382;2022-07-21T13:19:04;8.27;;;5.57;;
65244;SDS011;51846;48.692;2.382;2022-07-21T13:21:29;8.63;;;5.72;;
65244;SDS011;51846;48.692;2.382;2022-07-21T13:23:55;11.32;;;5.22;;
65244;SDS011;51846;48.692;2.382;2022-07-21T13:26:20;7.63;;;5.10;;
65244;SDS011;51846;48.692;2.382;2022-07-21T13:28:45;11.63;;;5.40;;
65244;SDS011;51846;48.692;2.382;2022-07-21T13:31:11;8.68;;;5.38;;
65244;SDS011;51846;48.692;2.382;2022-07-21T13:33:36;8.93;;;5.35;;
65244;SDS011;51846;48.692;2.382;2022-07-21T13:36:03;9.60;;;5.22;;
65244;SDS011;51846;48.692;2.382;2022-07-21T13:38:29;7.30;;;5.30;;
65244;SDS011;51846;48.692;2.382;2022-07-21T13:40:56;10.80;;;5.30;;
65244;SDS011;51846;48.692;2.382;2022-07-21T13:43:21;8.98;;;5.40;;
65244;SDS011;51846;48.692;2.382;2022-07-21T13:45:47;9.73;;;5.45;;
65244;SDS011;51846;48.692;2.382;2022-07-21T13:48:12;14.50;;;5.40;;
65244;SDS011;51846;48.692;2.382;2022-07-21T13:50:37;7.50;;;5.15;;
65244;SDS011;51846;48.692;2.382;2022-07-21T13:53:03;7.57;;;5.13;;
65244;SDS011;51846;48.692;2.382;2022-07-21T13:55:28;7.47;;;5.00;;
65244;SDS011;51846;48.692;2.382;2022-07-21T13:57:54;8.75;;;4.85;;
65244;SDS011;51846;48.692;2.382;2022-07-21T14:00:19;9.10;;;5.40;;
65244;SDS011;51846;48.692;2.382;2022-07-21T14:02:44;7.50;;;4.97;;
65244;SDS011;51846;48.692;2.382;2022-07-21T14:05:10;10.07;;;5.35;;
65244;SDS011;51846;48.692;2.382;2022-07-21T14:07:35;8.00;;;5.30;;
65244;SDS011;51846;48.692;2.382;2022-07-21T14:10:01;6.78;;;4.90;;
65244;SDS011;51846;48.692;2.382;2022-07-21T14:12:26;7.47;;;5.00;;
65244;SDS011;51846;48.692;2.382;2022-07-21T14:14:51;8.30;;;5.18;;
65244;SDS011;51846;48.692;2.382;2022-07-21T14:17:17;7.30;;;5.05;;
65244;SDS011;51846;48.692;2.382;2022-07-21T14:19:43;7.22;;;5.10;;
65244;SDS011;51846;48.692;2.382;2022-07-21T14:22:11;8.43;;;5.18;;
65244;SDS011;51846;48.692;2.382;2022-07-21T14:24:37;10.05;;;5.45;;
65244;SDS011;51846;48.692;2.382;2022-07-21T14:27:21;8.07;;;5.00;;
65244;SDS011;51846;48.692;2.382;2022-07-21T14:29:47;7.75;;;5.22;;
65244;SDS011;51846;48.692;2.382;2022-07-21T14:32:12;8.52;;;5.10;;
65244;SDS011;51846;48.692;2.382;2022-07-21T14:34:38;7.72;;;5.20;;
65244;SDS011;51846;48.692;2.382;2022-07-21T14:37:04;7.53;;;5.45;;
65244;SDS011;51846;48.692;2.382;2022-07-21T14:39:29;8.35;;;5.40;;
65244;SDS011;51846;48.692;2.382;2022-07-21T14:41:54;6.97;;;5.00;;
65244;SDS011;51846;48.692;2.382;2022-07-21T14:44:20;9.40;;;5.40;;
65244;SDS011;51846;48.692;2.382;2022-07-21T14:46:45;10.73;;;5.20;;
65244;SDS011;51846;48.692;2.382;2022-07-21T14:49:10;7.93;;;5.10;;
65244;SDS011;51846;48.692;2.382;2022-07-21T14:51:36;7.13;;;5.30;;
65244;SDS011;51846;48.692;2.382;2022-07-21T14:54:01;8.95;;;5.55;;
65244;SDS011;51846;48.692;2.382;2022-07-21T14:56:26;12.77;;;5.82;;
65244;SDS011;51846;48.692;2.382;2022-07-21T14:58:52;9.45;;;5.70;;
65244;SDS011;51846;48.692;2.382;2022-07-21T15:01:17;11.07;;;5.85;;
65244;SDS011;51846;48.692;2.382;2022-07-21T15:03:43;10.52;;;5.70;;
65244;SDS011;51846;48.692;2.382;2022-07-21T15:06:08;9.88;;;5.38;;
65244;SDS011;51846;48.692;2.382;2022-07-21T15:08:34;7.85;;;5.20;;
65244;SDS011;51846;48.692;2.382;2022-07-21T15:10:59;8.82;;;5.40;;
65244;SDS011;51846;48.692;2.382;2022-07-21T15:13:24;12.05;;;5.97;;